Latest Weather Observations for Mount Crawford

IDS60801

Issued at 12:32 am CST Wednesday 23 September 2020 (issued every 10 minutes, with the page automatically refreshed every 10 minutes)

About weather observations | Map of weather stations | Latest weather observations for SA | Other Formats
Station Details ID: 023878 Name: MOUNT CRAWFORD AWS Lat: -34.73 Lon: 138.93 Height: 525.0 m
Data from the previous 72 hours. | See also: Recent months at Mount Crawford
Date/Time
CST
Temp
°C
App
Temp
°C
Dew
Point
°C
Rel
Hum
%
Delta-T
°C
Wind Press
QNH
hPa
Press
MSL
hPa
Rain since
9am
mm
Dir  Spd
km/h
Gust
km/h
Spd
kts
Gust
kts
23/12:30am 7.4 -0.2 7.4 100 0.0 W 37 50 20 27 1014.9 1014.7 3.8
23/12:11am 7.2 -0.1 7.2 100 0.0 W 35 54 19 29 1014.9 1014.7 3.8
23/12:00am 7.0 0.2 7.0 100 0.0 W 32 48 17 26 1015.3 1015.1 3.8
 
Date/Time
CST
Temp
°C
App
Temp
°C
Dew
Point
°C
Rel
Hum
%
Delta-T
°C
Wind Press
QNH
hPa
Press
MSL
hPa
Rain since
9am
mm
Dir  Spd
km/h
Gust
km/h
Spd
kts
Gust
kts
22/11:31pm 6.9 -0.1 6.9 100 0.0 W 33 63 18 34 1015.3 1015.1 3.6
22/11:30pm 7.1 0.3 7.1 100 0.0 W 32 48 17 26 1015.5 1015.3 3.6
22/11:04pm 7.4 -0.6 7.4 100 0.0 WNW 39 57 21 31 1015.2 1015.0 3.2
22/11:00pm 7.8 0.3 7.8 100 0.0 WNW 37 54 20 29 1015.3 1015.1 2.4
22/10:53pm 7.8 1.2 7.8 100 0.0 WNW 32 50 17 27 1015.4 1015.2 2.4
22/10:30pm 7.8 1.2 7.8 100 0.0 W 32 46 17 25 1015.7 1015.5 2.4
22/10:10pm 7.7 0.5 7.7 100 0.0 W 35 54 19 29 1015.7 1015.5 2.4
22/10:00pm 7.7 0.1 7.7 100 0.0 W 37 50 20 27 1015.6 1015.4 2.2
22/09:30pm 7.7 1.1 7.7 100 0.0 W 32 48 17 26 1015.9 1015.7 2.2
22/09:03pm 7.6 1.7 7.6 100 0.0 W 28 46 15 25 1015.8 1015.6 2.2
22/09:00pm 7.6 2.1 7.6 100 0.0 W 26 41 14 22 1015.8 1015.6 2.2
22/08:54pm 7.7 1.8 7.7 100 0.0 W 28 46 15 25 1015.8 1015.6 2.2
22/08:30pm 8.4 1.7 7.3 93 0.5 W 32 44 17 24 1015.7 1015.5 1.6
22/08:16pm 8.3 2.4 7.4 94 0.4 W 28 46 15 25 1015.5 1015.3 1.6
22/08:00pm 8.4 2.5 7.5 94 0.4 W 28 37 15 20 1015.4 1015.2 1.6
22/07:30pm 8.5 2.5 8.5 100 0.0 W 30 48 16 26 1014.9 1014.7 1.6
22/07:25pm 8.5 2.5 8.5 100 0.0 W 30 48 16 26 1014.8 1014.6 1.6
22/07:00pm 8.5 1.4 8.2 98 0.1 W 35 48 19 26 1014.3 1014.1 1.6
22/06:35pm 8.7 2.1 7.8 94 0.4 W 32 50 17 27 1014.1 1013.9 1.6
22/06:30pm 8.8 1.6 7.7 93 0.5 W 35 50 19 27 1014.1 1013.9 1.6
22/06:00pm 8.9 1.7 7.5 91 0.7 W 35 54 19 29 1013.8 1013.6 1.6
22/05:31pm 9.4 1.8 7.7 89 0.8 WNW 37 57 20 31 1013.1 1012.8 1.6
22/05:30pm 9.5 2.0 7.9 90 0.8 WNW 37 50 20 27 1013.2 1012.9 1.6
22/05:00pm 9.8 1.1 7.7 87 1.0 W 43 74 23 40 1012.8 1012.6 1.6
22/04:30pm 9.9 2.5 8.2 89 0.8 W 37 61 20 33 1012.5 1012.3 1.6
22/04:00pm 9.6 3.3 9.6 100 0.0 W 33 54 18 29 1012.5 1012.3 1.6
22/03:30pm 8.7 0.1 8.7 100 0.0 W 44 72 24 39 1012.1 1011.9 1.6
22/03:03pm 9.0 -0.1 8.4 96 0.3 W 46 65 25 35 1011.6 1011.3 0.8
22/03:00pm 9.5 0.3 7.9 90 0.8 W 46 61 25 33 1011.7 1011.4 0.6
22/02:49pm 9.9 1.4 8.7 92 0.6 W 43 76 23 41 1011.8 1011.6 0.6
22/02:46pm 10.1 0.6 8.4 89 0.9 W 48 80 26 43 1011.9 1011.7 0.6
22/02:41pm 10.1 0.8 7.5 84 1.3 W 46 80 25 43 1011.4 1011.1 0.6
22/02:40pm 10.2 0.8 7.3 82 1.4 W 46 80 25 43 1011.2 1010.9 0.6
22/02:38pm 10.5 2.2 7.6 82 1.4 W 41 80 22 43 1011.5 1011.2 0.6
22/02:31pm 10.5 2.7 8.3 86 1.1 W 39 59 21 32 1011.7 1011.4 0.6
22/02:30pm 10.6 2.9 8.7 88 1.0 W 39 54 21 29 1011.8 1011.6 0.6
22/02:00pm 9.1 -0.2 9.1 100 0.0 W 48 69 26 37 1011.3 1011.0 0.6
22/01:30pm 10.0 0.7 7.4 84 1.3 W 46 70 25 38 1011.3 1011.0 0.4
22/01:00pm 9.3 0.0 9.0 98 0.2 W 48 67 26 36 1011.4 1011.1 0.4
22/12:30pm 10.3 1.2 6.6 78 1.8 WNW 44 65 24 35 1011.2 1010.9 0.4
22/12:00pm 10.2 0.3 6.7 79 1.7 WNW 48 72 26 39 1010.8 1010.6 0.4
22/11:30am 10.2 1.0 7.8 85 1.2 WNW 46 78 25 42 1010.8 1010.6 0.4
22/11:00am 9.5 0.9 8.7 95 0.4 WNW 44 70 24 38 1010.5 1010.3 0.4
22/10:30am 8.8 -1.3 8.8 100 0.0 WNW 52 76 28 41 1009.8 1009.5 0.4
22/10:00am 8.7 0.1 8.7 100 0.0 WNW 44 63 24 34 1009.6 1009.3 0.4
22/09:30am 8.0 -2.3 8.0 100 0.0 W 52 80 28 43 1009.1 1008.8 0.4
22/09:00am 6.8 -5.5 6.8 100 0.0 W 61 83 33 45 1008.3 1008.0 3.0
22/08:30am 7.7 -2.7 7.7 100 0.0 WNW 52 74 28 40 1008.2 1007.9 2.0
22/08:00am 7.8 -2.6 7.8 100 0.0 WNW 52 78 28 42 1007.9 1007.6 2.0
22/07:30am 7.5 -3.0 7.5 100 0.0 WNW 52 78 28 42 1007.3 1007.0 2.0
22/07:00am 7.5 -2.6 7.5 100 0.0 WNW 50 76 27 41 1007.3 1007.0 1.8
22/06:30am 7.3 -2.8 7.3 100 0.0 WNW 50 70 27 38 1007.0 1006.7 1.8
22/06:00am 6.8 -4.2 6.8 100 0.0 WNW 54 82 29 44 1006.7 1006.4 1.6
22/05:30am 7.2 -2.6 7.2 100 0.0 WNW 48 69 26 37 1006.4 1006.1 1.2
22/05:00am 7.1 -3.1 7.1 100 0.0 WNW 50 69 27 37 1006.4 1006.1 1.2
22/04:30am 7.1 -2.3 7.1 100 0.0 WNW 46 67 25 36 1006.2 1005.9 1.0
22/04:05am 7.3 -1.7 7.3 100 0.0 WNW 44 63 24 34 1006.2 1005.9 1.0
22/04:00am 7.3 -2.1 7.3 100 0.0 WNW 46 63 25 34 1006.2 1005.9 1.0
22/03:30am 7.4 -2.3 7.4 100 0.0 WNW 48 67 26 36 1006.1 1005.8 1.0
22/03:03am 7.4 -1.9 7.4 100 0.0 WNW 46 67 25 36 1006.2 1005.9 0.8
22/03:00am 7.5 -2.2 7.5 100 0.0 WNW 48 65 26 35 1006.2 1005.9 0.8
22/02:37am 7.6 -1.7 7.6 100 0.0 WNW 46 65 25 35 1006.3 1006.0 0.8
22/02:30am 7.6 -1.3 7.6 100 0.0 WNW 44 61 24 33 1006.3 1006.0 0.8
22/02:00am 7.7 -1.6 7.7 100 0.0 WNW 46 69 25 37 1006.6 1006.3 0.8
22/01:33am 7.7 -1.0 7.7 100 0.0 WNW 43 61 23 33 1006.8 1006.5 0.8
22/01:30am 7.8 -1.1 7.8 100 0.0 WNW 44 61 24 33 1006.8 1006.5 0.8
22/01:00am 7.9 -1.3 7.9 100 0.0 WNW 46 65 25 35 1006.7 1006.4 0.8
22/12:30am 8.0 -0.6 8.0 100 0.0 WNW 43 65 23 35 1006.8 1006.5 0.8
22/12:05am 8.2 0.0 8.2 100 0.0 WNW 41 61 22 33 1006.8 1006.5 0.8
22/12:00am 8.3 0.5 8.3 100 0.0 WNW 39 56 21 30 1007.0 1006.7 0.8
 
Date/Time
CST
Temp
°C
App
Temp
°C
Dew
Point
°C
Rel
Hum
%
Delta-T
°C
Wind Press
QNH
hPa
Press
MSL
hPa
Rain since
9am
mm
Dir  Spd
km/h
Gust
km/h
Spd
kts
Gust
kts
21/11:30pm 8.3 0.1 8.3 100 0.0 WNW 41 63 22 34 1007.0 1006.7 0.8
21/11:00pm 8.4 -0.1 8.4 100 0.0 WNW 43 61 23 33 1006.8 1006.5 0.8
21/10:30pm 8.4 -1.1 8.4 100 0.0 W 48 67 26 36 1006.7 1006.4 0.8
21/10:00pm 9.2 1.1 8.6 96 0.3 WNW 41 61 22 33 1007.0 1006.7 0.0
21/09:30pm 9.2 1.0 8.1 93 0.5 WNW 41 61 22 33 1007.1 1006.8 0.0
21/09:00pm 9.3 1.7 7.7 90 0.8 WNW 37 63 20 34 1006.8 1006.5 0.0
21/08:30pm 9.6 3.0 7.7 88 0.9 WNW 32 54 17 29 1006.8 1006.5 0.0
21/08:00pm 9.9 2.1 6.6 80 1.6 WNW 37 61 20 33 1005.8 1005.5 0.0
21/07:30pm 9.7 0.9 7.1 84 1.3 WNW 43 63 23 34 1004.7 1004.4 0.0
21/07:00pm 10.0 -0.9 7.4 84 1.3 WNW 54 80 29 43 1004.3 1004.0 0.0
21/06:30pm 10.4 0.8 8.0 85 1.2 W 48 70 26 38 1003.9 1003.6 0.0
21/06:00pm 11.2 0.6 6.7 74 2.2 WNW 52 70 28 38 1003.3 1002.9 0.0
21/05:30pm 11.8 1.5 6.5 70 2.6 WNW 50 72 27 39 1003.4 1003.0 0.0
21/05:00pm 12.7 4.1 6.5 66 3.0 WNW 41 61 22 33 1004.3 1004.0 0.0
21/04:32pm 12.0 4.1 7.7 75 2.2 W 39 57 21 31 1004.6 1004.3 0.0
21/04:30pm 12.0 3.7 7.7 75 2.2 W 41 57 22 31 1004.4 1004.1 0.0
21/04:02pm 12.4 4.3 7.1 70 2.6 W 39 57 21 31 1004.0 1003.7 0.0
21/04:00pm 12.3 4.6 7.2 71 2.5 W 37 52 20 28 1004.2 1003.9 0.0
21/03:36pm 13.1 4.6 7.1 67 3.0 W 41 59 22 32 1004.2 1003.9 0.0
21/03:30pm 13.3 4.5 7.1 66 3.1 W 43 59 23 32 1004.1 1003.8 0.0
21/03:00pm 13.9 5.0 7.0 63 3.5 W 43 65 23 35 1004.0 1003.7 0.0
21/02:30pm 13.7 4.7 6.6 62 3.5 W 43 67 23 36 1004.1 1003.8 0.0
21/02:00pm 13.3 4.0 5.0 57 4.0 WNW 43 61 23 33 1004.3 1004.0 0.0
21/01:30pm 13.4 4.3 5.8 60 3.7 W 43 65 23 35 1004.8 1004.5 0.0
21/01:05pm 13.9 6.0 6.0 59 3.9 WNW 37 61 20 33 1004.7 1004.4 0.0
21/01:00pm 13.7 5.7 5.6 58 3.9 WNW 37 50 20 27 1005.0 1004.6 0.0
21/12:30pm 13.3 3.5 3.4 51 4.6 WNW 44 67 24 36 1005.0 1004.6 0.0
21/12:00pm 13.9 3.2 2.8 47 5.1 WNW 48 91 26 49 1004.6 1004.3 0.0
21/11:57am 13.9 3.6 2.8 47 5.1 WNW 46 91 25 49 1004.5 1004.2 0.0
21/11:30am 14.3 4.0 2.9 46 5.3 WNW 46 72 25 39 1005.0 1004.6 0.0
21/11:00am 13.3 2.8 1.3 44 5.3 WNW 46 76 25 41 1004.7 1004.4 0.0
21/10:30am 13.4 4.0 0.1 40 5.7 NW 39 61 21 33 1004.7 1004.4 0.0
21/10:00am 13.2 4.6 0.3 41 5.6 NW 35 67 19 36 1004.8 1004.5 0.0
21/09:35am 12.4 4.5 1.1 46 4.9 NNW 32 57 17 31 1005.1 1004.7 0.0
21/09:30am 12.4 5.0 1.7 48 4.7 NNW 30 44 16 24 1005.2 1004.8 0.0
21/09:00am 10.6 4.0 2.2 56 3.7 NNW 26 37 14 20 1005.4 1005.1 1.2
21/08:30am 9.5 2.9 2.1 60 3.2 NNW 26 39 14 21 1005.4 1005.1 1.2
21/08:00am 8.5 3.1 2.5 66 2.6 NNW 20 32 11 17 1005.5 1005.2 1.2
21/07:30am 7.4 1.7 2.9 73 2.0 NNW 22 32 12 17 1005.5 1005.2 1.2
21/07:00am 6.4 1.3 3.0 79 1.5 NNW 19 26 10 14 1005.6 1005.3 1.2
21/06:30am 5.4 0.8 3.6 88 0.8 NNW 17 20 9 11 1005.6 1005.3 1.2
21/06:00am 5.5 0.0 3.8 89 0.7 NW 22 33 12 18 1005.4 1005.1 1.2
21/05:30am 5.4 0.5 5.3 99 0.0 NW 20 28 11 15 1005.4 1005.1 1.2
21/05:00am 6.0 0.8 5.7 98 0.1 NW 22 32 12 17 1005.3 1005.0 1.2
21/04:30am 6.5 1.4 6.1 97 0.2 WNW 22 32 12 17 1005.1 1004.7 1.2
21/04:00am 6.7 1.4 6.6 99 0.0 WNW 24 32 13 17 1005.0 1004.6 1.2
21/03:30am 7.0 1.3 6.6 97 0.2 WNW 26 39 14 21 1004.8 1004.5 1.2
21/03:00am 7.2 1.0 6.3 94 0.4 W 28 39 15 21 1004.6 1004.3 1.2
21/02:30am 7.6 1.5 6.4 92 0.6 W 28 37 15 20 1004.7 1004.4 1.2
21/02:00am 8.0 0.8 6.1 88 0.9 WNW 33 43 18 23 1004.8 1004.5 1.2
21/01:30am 8.6 0.6 5.7 82 1.4 WNW 37 50 20 27 1005.3 1005.0 1.2
21/01:08am 8.9 2.0 6.3 84 1.2 WNW 32 52 17 28 1005.8 1005.5 1.2
21/01:00am 9.0 2.1 6.6 85 1.1 WNW 32 43 17 23 1005.9 1005.6 1.2
21/12:30am 9.5 3.1 6.9 84 1.3 WNW 30 43 16 23 1006.2 1005.9 1.2
21/12:00am 9.9 2.9 6.1 77 1.8 WNW 32 46 17 25 1006.4 1006.1 1.2
 
Date/Time
CST
Temp
°C
App
Temp
°C
Dew
Point
°C
Rel
Hum
%
Delta-T
°C
Wind Press
QNH
hPa
Press
MSL
hPa
Rain since
9am
mm
Dir  Spd
km/h
Gust
km/h
Spd
kts
Gust
kts
20/11:30pm 10.4 4.3 6.4 76 1.9 WNW 28 43 15 23 1007.2 1006.9 1.2
20/11:00pm 10.9 4.9 8.8 87 1.1 W 30 41 16 22 1007.3 1007.0 1.2
20/10:46pm 11.0 5.5 9.1 88 1.0 W 28 46 15 25 1007.1 1006.8 1.2
20/10:30pm 11.0 5.4 8.8 86 1.1 W 28 41 15 22 1007.2 1006.9 1.2
20/10:00pm 11.3 5.2 8.2 81 1.6 W 30 46 16 25 1007.0 1006.7 1.2
20/09:30pm 11.6 4.9 8.1 79 1.8 W 33 54 18 29 1006.6 1006.3 1.2
20/09:28pm 11.7 5.6 8.2 79 1.8 W 30 54 16 29 1006.5 1006.2 1.2
20/09:00pm 12.0 7.3 9.2 83 1.5 W 24 39 13 21 1006.6 1006.3 1.2
20/08:30pm 12.4 6.3 10.6 89 1.0 W 33 48 18 26 1006.0 1005.7 1.2
20/08:00pm 12.7 8.0 11.9 95 0.4 W 28 46 15 25 1005.6 1005.3 1.2
20/07:58pm 12.7 8.0 11.9 95 0.4 W 28 46 15 25 1005.4 1005.1 1.2
20/07:30pm 12.9 9.1 12.3 96 0.3 W 24 39 13 21 1004.8 1004.5 1.2
20/07:00pm 13.1 8.0 11.8 92 0.7 W 30 44 16 24 1003.9 1003.6 1.2
20/06:30pm 12.6 8.3 12.0 96 0.3 W 26 41 14 22 1004.0 1003.7 1.2
20/06:00pm 13.1 5.9 10.6 85 1.3 W 39 61 21 33 1002.6 1002.3 0.4
20/05:59pm 13.1 5.9 10.6 85 1.3 W 39 61 21 33 1002.8 1002.5 0.2
20/05:43pm 18.1 9.8 9.5 57 4.6 NW 43 67 23 36 1001.5 1001.1 0.0
20/05:41pm 19.5 12.1 10.0 54 5.2 NW 39 63 21 34 1001.3 1000.9 0.0
20/05:30pm 21.4 13.4 10.3 49 6.2 NNW 43 63 23 34 1001.1 1000.7 0.0
20/05:00pm 21.8 14.6 9.0 44 7.0 NNW 37 61 20 33 1001.4 1001.0 0.0
20/04:31pm 21.8 15.3 8.0 41 7.4 NNW 32 56 17 30 1001.6 1001.2 0.0
20/04:30pm 21.7 15.6 8.2 42 7.3 NNW 30 46 16 25 1001.6 1001.2 0.0
20/04:12pm 21.7 15.0 8.2 42 7.3 NNW 33 52 18 28 1001.7 1001.3 0.0
20/04:00pm 22.0 15.0 8.5 42 7.3 N 35 52 19 28 1001.7 1001.3 0.0
20/03:30pm 21.8 15.2 10.0 47 6.6 N 35 54 19 29 1001.7 1001.3 0.0
20/03:01pm 21.5 15.1 8.7 44 6.9 N 32 50 17 27 1001.7 1001.3 0.0
20/03:00pm 21.6 15.7 9.2 45 6.8 N 30 46 16 25 1001.7 1001.3 0.0
20/02:30pm 21.3 15.1 9.5 47 6.5 N 32 50 17 27 1002.1 1001.8 0.0
20/02:24pm 21.2 15.3 9.1 46 6.6 N 30 50 16 27 1002.1 1001.8 0.0
20/02:00pm 20.8 15.8 10.9 53 5.6 N 28 44 15 24 1002.6 1002.3 0.0
20/01:30pm 20.4 15.1 11.3 56 5.2 N 30 46 16 25 1003.0 1002.6 0.0
20/01:11pm 19.6 14.1 10.6 56 5.0 N 30 48 16 26 1003.4 1003.0 0.0
20/01:00pm 19.7 14.9 11.5 59 4.6 N 28 43 15 23 1003.6 1003.2 0.0
20/12:30pm 19.1 14.5 10.9 59 4.6 NNW 26 41 14 22 1004.1 1003.8 0.0
20/12:00pm 18.4 14.4 11.7 65 3.8 NNW 24 39 13 21 1004.8 1004.5 0.0
20/11:30am 18.8 15.6 13.0 69 3.4 N 22 33 12 18 1005.2 1004.8 0.0
20/11:00am 17.6 13.5 12.7 73 2.8 NNE 26 37 14 20 1005.0 1004.6 0.0
20/10:30am 16.9 13.2 12.8 77 2.3 N 24 33 13 18 1005.5 1005.2 0.0
20/10:00am 16.4 12.5 12.2 76 2.4 NNW 24 35 13 19 1006.2 1005.9 0.0
20/09:30am 15.3 11.3 11.7 79 2.0 NW 24 33 13 18 1006.4 1006.1 0.0
20/09:00am 14.9 10.9 11.7 81 1.8 NNW 24 35 13 19 1006.4 1006.1 2.2
20/08:30am 13.7 10.2 12.3 91 0.8 NW 22 32 12 17 1006.3 1006.0 2.2
20/08:00am 12.9 9.4 12.3 96 0.3 NW 22 32 12 17 1006.2 1005.9 2.2
20/07:30am 12.5 9.5 12.5 100 0.0 NW 20 32 11 17 1006.2 1005.9 2.2
20/07:00am 11.0 7.2 11.0 100 0.0 NW 22 32 12 17 1006.1 1005.8 2.2
20/06:30am 10.5 6.1 10.5 100 0.0 NW 24 32 13 17 1005.9 1005.6 2.2
20/06:00am 10.4 5.6 10.4 100 0.0 NW 26 35 14 19 1005.7 1005.4 2.2
20/05:30am 10.5 6.1 10.5 100 0.0 NW 24 35 13 19 1005.7 1005.4 2.0
20/05:00am 10.5 5.8 10.5 100 0.0 WNW 26 37 14 20 1005.7 1005.4 2.0
20/04:30am 10.5 5.4 10.5 100 0.0 WNW 28 37 15 20 1005.5 1005.2 2.0
20/04:00am 10.7 6.0 10.7 100 0.0 WNW 26 39 14 21 1005.4 1005.1 2.0
20/03:30am 11.0 6.8 11.0 100 0.0 WNW 24 35 13 19 1005.8 1005.5 2.0
20/03:00am 11.2 8.0 11.2 100 0.0 WNW 19 26 10 14 1006.1 1005.8 2.0
20/02:30am 11.0 7.2 11.0 100 0.0 WNW 22 28 12 15 1006.4 1006.1 2.0
20/02:00am 11.1 7.3 11.1 100 0.0 WNW 22 30 12 16 1006.2 1005.9 2.0
20/01:30am 11.0 6.8 11.0 100 0.0 WNW 24 30 13 16 1006.4 1006.1 2.0
20/01:00am 11.2 6.6 11.2 100 0.0 WNW 26 35 14 19 1006.3 1006.0 2.0

Other formats

Comma delimited format used in spreadsheet applications
http://www.bom.gov.au/fwo/IDS60801/IDS60801.94678.axf

JavaScript Object Notation format (JSON) in row-major order
http://www.bom.gov.au/fwo/IDS60801/IDS60801.94678.json

Data quality

Most of these data are generated automatically and are frequently updated. Quality checks on data are not normally performed. It is possible for incorrect values to appear. Refer to information at About Latest Weather Observations and please check the disclaimer before using these data.